Tiempo atmosférico en la estación meteorológica de Bilbao Aeropuerto, Bizkaia (42 m.)

Fecha
DESCASC
Temp. máxima en grados centígrados (hora)
DESCASC
Temp. mínima en grados centígrados (hora)
DESCASC
Temp. media en grados centígrados
DESCASC
Racha de viento máxima en m/sg (hora)
DESCASC
Velocidad máxima media en intervalos de 10 minutos(hora)
DESCASC
Precipitaciones diarias en mm
DESCASC
Precipitaciones de 00:00 a 06:00 en mm
DESCASC
Precipitaciones de 06:00 a 12:00 en mm
DESCASC
Precipitaciones de 12:00 a 18:00 en mm
DESCASC
Precipitaciones de 18:00 a 24:00 en mm
DESCASC
17-09-2017 20.7 (16:10) 10 (06:40) 15.4 10.83 (18:30) 6.11 (18:40) 0 0 0 0 0
16-09-2017 17.1 (13:20) 10.5 (01:50) 13.8 10.28 (12:30) 6.11 (12:30) 5.4 0 0 4 1.4
15-09-2017 17.1 (16:10) 10.3 (05:30) 13.7 8.89 (15:10) 5.56 (17:50) 20.7 0 2.5 10.5 7.7
14-09-2017 20.7 (15:10) 13.4 (00:00) 17.1 16.11 (07:10) 9.17 (09:00) 2.4 0 2.4 0 0
13-09-2017 24.9 (13:10) 14.1 (00:00) 19.5 8.89 (16:30) 5.83 (17:50) -- 0 -- 0 0
12-09-2017 -- (--) -- (--) -- -- (--) -- (--) -- 2.3 1 0 --
11-09-2017 21.8 (14:40) 15.3 (00:00) 18.5 14.44 (16:50) 8.33 (15:20) 7.3 2.3 3.1 0.6 1.3
10-09-2017 21.5 (16:10) 13.7 (00:00) 17.6 13.33 (03:20) 8.61 (12:30) 19.9 14.7 5 0 0.2
09-09-2017 20.5 (03:00) 14.1 (00:00) 17.3 18.06 (15:00) 11.11 (15:00) 17.7 4.1 4.6 3 6
08-09-2017 24.1 (15:20) 12.3 (00:00) 18.2 8.89 (15:40) 6.39 (15:40) 0 0 0 0 0
07-09-2017 22.4 (16:50) 15.2 (00:00) 18.8 7.22 (13:30) 4.17 (17:40) 0 0 0 0 0
06-09-2017 21.7 (16:20) 16.7 (00:00) 19.2 6.11 (07:30) 3.89 (16:10) 2 0.4 1.6 0 0
05-09-2017 26.5 (14:00) 15.2 (00:00) 20.8 7.78 (14:10) 4.72 (19:00) 0 0 0 0 0
04-09-2017 24.6 (16:20) 17.2 (00:00) 20.9 9.17 (16:20) 6.11 (16:20) 2 1.5 0.5 0 0
03-09-2017 27.3 (15:50) 14.6 (00:00) 20.9 7.22 (14:40) 4.17 (14:40) 0.5 0 0 0 0.5
02-09-2017 23.9 (16:40) 13 (00:00) 18.4 7.78 (17:00) 5.28 (17:50) 1.9 1.8 0.1 0 0
01-09-2017 22.6 (14:10) 14.4 (00:00) 18.5 11.39 (15:30) 7.78 (17:40) 1.5 0 0 0 1.5
31-08-2017 22.7 (17:30) 15.5 (00:00) 19.1 7.78 (18:00) 4.72 (18:30) 1.5 0.8 0.7 0 0
30-08-2017 26.8 (14:20) 16.2 (00:00) 21.5 10.83 (16:30) 7.22 (16:30) 17.2 0 0 13.4 3.8
29-08-2017 29.9 (15:40) 16.6 (00:00) 23.3 9.17 (16:30) 6.11 (16:30) 8.9 8.8 0.1 0 0
28-08-2017 27.7 (14:10) 18 (00:00) 22.9 10.83 (17:50) 6.94 (17:50) 0.8 0 0 0.5 0.3
27-08-2017 28.5 (13:40) 18.5 (00:00) 23.5 10.83 (18:00) 7.22 (17:20) 3 0 0 3 0
26-08-2017 31 (14:00) 20 (00:00) 25.5 8.33 (14:50) 5.83 (16:50) 0 0 0 0 0
25-08-2017 27.6 (12:50) 17.8 (00:00) 22.7 8.33 (13:40) 4.17 (13:30) 0 0 0 0 0
24-08-2017 28.1 (13:50) 19.3 (00:00) 23.7 7.78 (14:10) 4.72 (15:20) 0.1 0.1 0 0 0
23-08-2017 26 (13:00) 18 (00:00) 22 7.22 (18:10) 3.89 (14:30) 0 0 0 0 0
22-08-2017 28.2 (12:10) 18.7 (00:00) 23.5 9.72 (12:20) 6.94 (18:00) 0 0 0 0 0

Gráficas

Temp. máximas Temp. mínimas Temp. medias Precipitaciones Rachas de viento máximas Velocidades máximas media en intervalos de 10 minutos

Datos horarios

Fecha y hora oficial Temperatura (ºC) Velocidad del viento (km/h) Dirección del viento Racha (km/h) Dirección de racha Precipitación (mm) Presión (hPa) Tendencia (hPa) Humedad (%)
2017-09-20 23:00:00 14.8 5 Este 18 Este 0 1012.8 0.3 87
2017-09-20 22:00:00 15.8 2 Sudeste 8 Este 0 1012.9 0.3 82
2017-09-20 21:00:00 18.2 2 Este 13 Nordeste 0 1012.8 0.2 69
2017-09-20 20:00:00 20.5 5 Sudeste 15 Este 0 1012.5 -0.6 61
2017-09-20 19:00:00 23.7 3 Sur 18 Nordeste 0 1012.6 -1.1 50
2017-09-20 18:00:00 24.8 11 Nordeste 18 Este 0 1012.6 -1.7 48
2017-09-20 17:00:00 25.2 10 Nordeste 18 Nordeste 0 1013.1 -1.9 43
2017-09-20 16:00:00 25.2 7 Nordeste 17 Nordeste 0 1013.7 -2.1 38
2017-09-20 15:00:00 24.5 9 Sudeste 22 Este 0 1014.3 -2.5 38
2017-09-20 14:00:00 23 12 Sudeste 22 Este 0 1015 -2.2 39
2017-09-20 13:00:00 21.1 12 Sudeste 18 Sudeste 0 1015.8 -1.8 51
2017-09-20 12:00:00 18.5 12 Sudeste 18 Este 0 1016.8 -1.1 59
2017-09-20 11:00:00 15.3 11 Sudeste 21 Sudeste 0 1017.2 -1.1 76
2017-09-20 10:00:00 12.1 12 Sudeste 18 Sudeste 0 1017.6 -0.8 87
2017-09-20 09:00:00 9.9 13 Sudeste 18 Sudeste 0 1017.9 -0.7 97
2017-09-20 08:00:00 8.7 9 Sudeste 17 Sudeste 0 1018.3 -0.9 99
2017-09-20 07:00:00 8.9 8 Sudeste 18 Sudeste 0 1018.4 -1.1 99
2017-09-20 06:00:00 9.1 9 Sudeste 15 Sudeste 0 1018.6 -1.4 99
2017-09-20 05:00:00 9.2 8 Sudeste 15 Sudeste 0 1019.2 -1 99
2017-09-20 04:00:00 9.7 6 Este 8 Este 0 1019.5 -1 98
2017-09-20 03:00:00 10.2 3 Sudeste 8 Este 0 1020 -0.7 97
2017-09-20 02:00:00 10.7 4 Este 8 Sudeste 0 1020.2 -0.7 97
2017-09-20 01:00:00 11 5 Este 8 Este 0 1020.5 -0.4 96
2017-09-20 00:00:00 11.5 4 Este 8 Este 0 1020.7 0.1 92
2017-09-19 23:00:00 12.5 2 Sudeste 8 Sudeste 0 1020.9 0.6 89
2017-09-19 22:00:00 13.7 3 Este 11 Este 0 1020.9 0.7 85
2017-09-19 21:00:00 15.5 2 Este 13 Nordeste 0 1020.6 0.4 79
2017-09-19 20:00:00 17.5 5 Este 22 Nordeste 0 1020.3 -0.3 68
2017-09-19 19:00:00 19.1 10 Nordeste 18 Norte 0 1020.2 -0.7 63
2017-09-19 18:00:00 20.1 4 Nordeste 18 Nordeste 0 1020.2 -1.2 58
2017-09-19 17:00:00 20.1 3 Norte 21 Norte 0 1020.6 -1 60
2017-09-19 16:00:00 20.6 8 Noroeste 21 Norte 0 1020.9 -0.8 57
2017-09-19 15:00:00 19.7 9 Norte 21 Norte 0 1021.4 -0.4 61
2017-09-19 14:00:00 19.4 9 Noroeste 26 Norte 0 1021.6 -0.1 63
2017-09-19 13:00:00 19.3 12 Noroeste 22 Noroeste 0 1021.7 0.5 63
2017-09-19 12:00:00 18.8 3 Oeste 13 Oeste 0 1021.8 0.9 75
2017-09-19 11:00:00 16.6 3 Este 13 Nordeste 0 1021.7 1.1 96
2017-09-19 10:00:00 14.6 4 Este 11 Este 0 1021.2 0.8 100
2017-09-19 09:00:00 13.6 5 Este 11 Este 0 1020.9 0.6 100
2017-09-19 08:00:00 13.5 4 Sudeste 8 Este 0 1020.6 0.5 100
2017-09-19 07:00:00 13.5 4 Este 8 Sudeste 0 1020.4 0.1 100
2017-09-19 06:00:00 13.9 0 Calma 5 Este 0 1020.3 -0.1 100
2017-09-19 05:00:00 13.9 3 Sudeste 8 Sudeste 0 1020.1 0.1 100
2017-09-19 04:00:00 13.7 3 Sudeste 5 Sudeste 0 1020.3 0.2 100
2017-09-19 03:00:00 14 0 Calma 4 Nordeste 0 1020.4 0.4 100
2017-09-19 02:00:00 15 0 Calma 11 Nordeste 0.2 1020 0.2 100
2017-09-19 01:00:00 15 0 Calma -- -- 0 1020.1 0.8 100
2017-09-19 00:00:00 15.4 0 Calma 5 Nordeste 0.2 1020 1.4 100
2017-09-18 23:00:00 15.4 2 Nordeste 8 Nordeste 0 1019.8 2 100
2017-09-18 22:00:00 15.3 4 Noroeste 11 Noroeste 0 1019.3 2.4 100
2017-09-18 21:00:00 15.7 8 Noroeste 13 Noroeste 0 1018.6 2.2 99
2017-09-18 20:00:00 15.9 0 Calma 8 Oeste 0.1 1017.8 1.4 98
2017-09-18 19:00:00 16.1 3 Noroeste 15 Norte 0.8 1016.9 1.1 95
2017-09-18 18:00:00 17.3 2 Noroeste 11 Norte 0.2 1016.4 0.5 89
2017-09-18 17:00:00 17.3 0 Calma 5 Oeste 0.2 1016.4 0.6 91
2017-09-18 16:00:00 16.8 0 Calma 8 Norte 0 1015.8 0.4 92
2017-09-18 15:00:00 16.5 4 Noroeste 13 Noroeste 0 1015.9 1 90
2017-09-18 14:00:00 16.3 4 Norte 15 Norte 0 1015.8 1.3 88
2017-09-18 13:00:00 16.5 6 Oeste 18 Sudoeste 0 1015.4 1.5 85
2017-09-18 12:00:00 17.7 0 Calma 5 Noroeste 0 1014.9 1.3 79
2017-09-18 11:00:00 16.7 0 Calma 5 Este 0 1014.5 1.3 87
2017-09-18 10:00:00 15.3 4 Este 13 Este 0 1013.9 0.8 96
2017-09-18 09:00:00 14.3 4 Sudeste 8 Sudeste 0 1013.6 0.4 99
2017-09-18 08:00:00 13.8 0 Calma 5 Sudeste 0 1013.2 0.1 99
2017-09-18 07:00:00 14 0 Calma 5 Este 0.8 1013.1 -0.6 99
2017-09-18 06:00:00 14 0 Calma 5 Este 1.1 1013.2 -0.5 99
2017-09-18 05:00:00 14.2 3 Este -- -- 1.5 1013.1 -0.8 99
2017-09-18 04:00:00 14.6 0 Calma 5 Sudeste 1.2 1013.7 -0.8 98
2017-09-18 03:00:00 14.6 0 Calma 11 Este 0.6 1013.7 -1.1 97
2017-09-18 02:00:00 15.2 4 Este 8 Sudeste 0 1013.9 -1.1 96
2017-09-18 01:00:00 15.6 0 Calma 8 Sudeste 0 1014.5 -0.5 92
2017-09-18 00:00:00 15.9 2 Sudeste 5 Sudoeste 0 1014.8 0.2 87
2017-09-17 23:00:00 16.6 0 Calma 15 Noroeste 0 1015 0.9 83
2017-09-17 22:00:00 16.9 9 Noroeste 28 Noroeste 0 1015 0.9 80
2017-09-17 21:00:00 17.4 9 Noroeste 26 Noroeste 0 1014.6 0.6 77
2017-09-17 20:00:00 17.6 12 Noroeste 26 Norte 0 1014.1 0.5 73
2017-09-17 19:00:00 17.8 16 Noroeste 39 Noroeste 0 1014.1 0.2 75
2017-09-17 18:00:00 18.7 17 Noroeste 28 Noroeste 0 1014 -0.1 67
2017-09-17 17:00:00 19.9 18 Noroeste 30 Noroeste 0 1013.6 -0.6 56
2017-09-17 16:00:00 20.2 17 Noroeste 33 Noroeste 0 1013.9 -0.5 52
2017-09-17 15:00:00 19.7 19 Noroeste 33 Noroeste 0 1014.1 -0.4 53
2017-09-17 14:00:00 20 9 Noroeste 22 Noroeste 0 1014.2 -0.4 52
2017-09-17 13:00:00 17.8 13 Noroeste 28 Noroeste 0 1014.4 0.1 60
2017-09-17 12:00:00 18.5 8 Oeste 21 Sudoeste 0 1014.5 0.7 57
2017-09-17 11:00:00 14.8 5 Este 15 Este 0 1014.6 1.2 84
2017-09-17 10:00:00 11.7 4 Sur 11 Este 0 1014.3 1.4 96
2017-09-17 09:00:00 10.8 6 Este 11 Sudeste 0 1013.8 0.9 98
2017-09-17 08:00:00 10.3 5 Este 13 Este 0 1013.4 0.6 99
2017-09-17 07:00:00 10.2 8 Este 13 Este 0 1012.9 0 99
2017-09-17 06:00:00 10.4 3 Este 11 Este 0 1012.9 -0.5 99
2017-09-17 05:00:00 10.8 3 Sudeste 11 Este 0 1012.8 -0.8 99
2017-09-17 04:00:00 11 7 Sudeste 13 Sudeste 0 1012.9 -0.9 99
2017-09-17 03:00:00 11.7 2 Nordeste 11 Sudeste 0 1013.4 -0.7 99
2017-09-17 02:00:00 11.5 4 Este 11 Sudeste 0 1013.6 -0.2 99
2017-09-17 01:00:00 11.5 6 Sudeste 11 Sudeste 0 1013.8 -0.4 98
2017-09-17 00:00:00 11.8 3 Este 13 Sur 0 1014.1 0.5 99
2017-09-16 23:00:00 12.5 0 Calma 8 Nordeste 0 1013.8 0.2 98
2017-09-16 22:00:00 12.7 0 Calma 8 Este 0 1014.2 1.1 98
2017-09-16 21:00:00 13.1 0 Calma 13 Este 0.4 1013.6 0.3 96
2017-09-16 20:00:00 13.6 0 Calma 18 Este 0.7 1013.6 0.6 93
2017-09-16 19:00:00 14.2 6 Este 15 Este 0.3 1013.1 -0.4 87
2017-09-16 18:00:00 14 8 Sudeste 32 Este 2.9 1013.3 -0.6 90
2017-09-16 17:00:00 15.9 5 Sur 13 Sudoeste 0 1013 -0.6 67
2017-09-16 16:00:00 15.2 5 Sudeste 22 Nordeste 0.6 1013.5 0.1 83
2017-09-16 15:00:00 14.4 12 Norte 21 Noroeste 0.3 1013.9 0.6 79
2017-09-16 14:00:00 15.4 10 Norte 30 Noroeste 0 1013.6 0.4 73
2017-09-16 13:00:00 14.9 13 Noroeste 37 Norte 0.2 1013.4 0.8 77
2017-09-16 12:00:00 16.4 17 Oeste 24 Noroeste 0 1013.3 0.9 64
2017-09-16 11:00:00 15.8 7 Oeste 21 Oeste 0 1013.2 0.9 68
2017-09-16 10:00:00 13.6 10 Oeste 18 Oeste 0 1012.6 0.8 77
2017-09-16 09:00:00 11.4 3 Sudeste 8 Sur 0 1012.4 0.3 100
2017-09-16 08:00:00 10.9 3 Este 9 Este 0 1012.3 0.1 100
2017-09-16 07:00:00 10.9 5 Este 8 Sudeste 0 1011.8 -1 100
2017-09-16 06:00:00 11.2 0 Calma 5 Este 0 1012.1 -0.9 100
2017-09-16 05:00:00 11.1 5 Nordeste 8 Nordeste 0 1012.2 -1.2 100
2017-09-16 04:00:00 11.1 0 Calma 5 Sudeste 0 1012.8 -0.8 100
2017-09-16 03:00:00 11 4 Este 13 Sudeste 0 1013 -1.2 100
2017-09-16 02:00:00 10.5 3 Este 8 Este 0 1013.4 -0.8 100
2017-09-16 01:00:00 11.2 4 Sudeste 11 Este 0 1013.6 -0.7 99
2017-09-16 00:00:00 11.9 0 Calma 18 Este 1.2 1014.2 0.6 99
2017-09-15 23:00:00 12 4 Este 8 Este 0.2 1014.2 0.1 97
2017-09-15 22:00:00 12.7 4 Sudeste 21 Noroeste 1.5 1014.3 0.7 95
2017-09-15 21:00:00 13 0 Calma 21 Nordeste 0.7 1013.6 0.2 95
2017-09-15 20:00:00 14.1 11 Nordeste 32 Nordeste 2.3 1014.1 0.7 94
2017-09-15 19:00:00 15 4 Oeste 32 Noroeste 1.8 1013.6 0.4 89
2017-09-15 18:00:00 13.9 14 Norte 32 Norte 2.7 1013.4 -0.4 94
2017-09-15 17:00:00 14.7 3 Sudoeste 30 Noroeste 3 1013.4 -0.6 84
2017-09-15 16:00:00 16.3 4 Oeste 32 Noroeste 0.9 1013.2 -0.9 84
2017-09-15 15:00:00 15.8 0 Calma 24 Noroeste 0.2 1013.8 -0.8 80
2017-09-15 14:00:00 16.1 8 Oeste 18 Oeste 0.4 1014 -0.8 82
2017-09-15 13:00:00 15.4 0 Calma 18 Oeste 3.3 1014.1 -0.5 90
2017-09-15 12:00:00 16 3 Oeste 24 Noroeste 0.8 1014.6 0.1 82
2017-09-15 11:00:00 16.4 3 Oeste 13 Este 0.6 1014.8 0.1 81
2017-09-15 10:00:00 12.7 9 Este 15 Este 0.4 1014.6 0.1 99
2017-09-15 09:00:00 11.8 0 Calma 15 Este 0.2 1014.5 -0.4 99
2017-09-15 08:00:00 11.3 9 Sudeste 15 Este 0.5 1014.7 -0.3 99
2017-09-15 07:00:00 11 6 Este 13 Este 0 1014.5 -1.2 99
2017-09-15 06:00:00 10.5 4 Este 15 Este 0 1014.9 -1.6 99
2017-09-15 05:00:00 10.6 6 Este 11 Este 0 1015 -1.7 99
2017-09-15 04:00:00 10.8 5 Sudeste 13 Sudeste 0 1015.7 -1.2 98
2017-09-15 03:00:00 11.5 9 Este 15 Este 0 1016.5 -0.9 98
2017-09-15 02:00:00 12.2 5 Este 13 Sudeste 0 1016.7 -1.3 98
2017-09-15 01:00:00 13 3 Este 8 Este 0 1016.9 -1.4 95
2017-09-15 00:00:00 13.6 4 Este 13 Este 0 1017.4 -0.8 92
2017-09-14 23:00:00 14.2 0 Calma 9 Este 0 1018 -0.1 85
2017-09-14 22:00:00 14.3 2 Este 11 Este 0 1018.3 0.2 85
2017-09-14 21:00:00 15.5 2 Sudeste 13 Norte 0 1018.2 -0.4 72
2017-09-14 20:00:00 17.1 8 Noroeste 21 Norte 0 1018.1 -1.1 62
2017-09-14 19:00:00 18 10 Norte 28 Norte 0 1018.1 -1.5 60
2017-09-14 18:00:00 18.4 18 Norte 35 Noroeste 0 1018.6 -1.3 59
2017-09-14 17:00:00 19.1 13 Norte 35 Norte 0 1019.2 -1 59
2017-09-14 16:00:00 19.6 20 Noroeste 33 Noroeste 0 1019.6 -0.9 62
2017-09-14 15:00:00 20.2 15 Noroeste 33 Noroeste 0 1019.9 -0.9 62
2017-09-14 14:00:00 19.1 18 Noroeste 33 Noroeste 0 1020.2 -0.6 65
2017-09-14 13:00:00 19.2 12 Noroeste 28 Oeste 0 1020.5 0.8 66
2017-09-14 12:00:00 16.7 6 Oeste 17 Noroeste 0 1020.8 1.6 77
2017-09-14 11:00:00 14.8 11 Noroeste 35 Noroeste 0 1020.8 3.1 96
2017-09-14 10:00:00 14.5 12 Noroeste 33 Noroeste 0 1019.7 4.3 96
2017-09-14 09:00:00 13.6 33 Noroeste 52 Noroeste 0.7 1019.2 4.7 98
2017-09-14 08:00:00 15.1 22 Noroeste 58 Norte 1.2 1017.7 3.5 100
2017-09-14 07:00:00 18.1 27 Noroeste 48 Norte 0.5 1015.4 1.1 94
2017-09-14 06:00:00 18.2 4 Este 8 Este 0 1014.5 -0.1 93
2017-09-14 05:00:00 18.6 0 Calma 5 Sudeste 0 1014.2 -0.6 92
2017-09-14 04:00:00 18.9 3 Este 8 Este 0 1014.3 -0.9 89
2017-09-14 03:00:00 19.1 4 Este 5 Este 0 1014.6 -1.1 88
2017-09-14 02:00:00 18.9 4 Este 8 Este 0 1014.8 -1.5 90
2017-09-14 01:00:00 18.7 3 Este 13 Este 0 1015.2 -1 90
2017-09-14 00:00:00 18.5 9 Este 13 Este 0 1015.7 -0.2 91
2017-09-13 23:00:00 18.6 3 Sudeste 13 Este 0 1016.3 0.7 90
2017-09-13 22:00:00 19.3 5 Este 11 Este 0 1016.2 0.5 85
2017-09-13 21:00:00 20.6 0 Calma 5 Noroeste 0 1015.9 0.1 78
2017-09-13 20:00:00 21.6 0 Calma 15 Noroeste 0 1015.6 -0.4 74
2017-09-13 19:00:00 22.1 6 Noroeste 26 Noroeste 0 1015.7 -0.4 72
2017-09-13 18:00:00 22.7 21 Noroeste 32 Noroeste 0 1015.8 -0.7 69
2017-09-13 17:00:00 24.2 15 Noroeste 32 Noroeste 0 1016 -1 64
2017-09-13 16:00:00 24.1 13 Noroeste 24 Noroeste 0 1016.1 -1.2 64
2017-09-13 15:00:00 24.6 12 Noroeste 26 Norte 0 1016.5 -0.9 63
2017-09-13 14:00:00 24.4 10 Norte 21 Nordeste 0 1017 -0.6 64
2017-09-13 13:00:00 24.4 7 Nordeste 17 Nordeste 0 1017.3 -0.1 62
2017-09-13 12:00:00 23.8 2 Oeste 11 Noroeste -- 1017.4 0.1 62
2017-09-13 11:00:00 21.4 2 Este 13 Sudeste 0 1017.6 0.2 69
2017-09-13 10:00:00 18.9 5 Sudeste 13 Sudeste 0 1017.4 0.1 80
2017-09-13 09:00:00 15.9 0 Calma 13 Este 0 1017.3 0.1 94
2017-09-13 08:00:00 14.1 8 Este 15 Este 0 1017.4 0.2 98
2017-09-13 07:00:00 14.5 4 Sudeste 5 Sur 0 1017.3 -0.1 97
2017-09-13 06:00:00 14.9 0 Calma 4 Este 0 1017.2 -0.4 97
2017-09-13 05:00:00 14.9 4 Este 15 Sudeste 0 1017.2 -0.2 97
2017-09-13 04:00:00 15.3 6 Este 11 Este 0 1017.4 0.3 96
2017-09-13 03:00:00 15.7 6 Este 11 Este 0 1017.6 0.2 97
2017-09-13 02:00:00 15.7 0 Calma 5 Este 0 1017.4 0.2 96
2017-09-13 01:00:00 15.8 5 Este 11 Este 0 1017.1 -- 95
2017-09-13 00:00:00 16.4 5 Sudeste 13 Este 0 1017.4 1.3 93
2017-09-12 23:00:00 16.4 5 Este -- -- -- 1017.2 1.6 92
2017-09-12 22:00:00 -- -- -- -- -- -- -- -- --
2017-09-12 21:00:00 18.4 2 Este 11 Este 0 1016.1 0.4 83
2017-09-12 20:00:00 20.1 3 Este 13 Norte 0 1015.6 0.1 72
2017-09-12 19:00:00 20.8 7 Norte 18 Noroeste 0 1015.9 0.5 66
2017-09-12 18:00:00 22 9 Noroeste 21 Oeste 0 1015.7 0.1 64
2017-09-12 17:00:00 21.9 8 Noroeste 22 Noroeste 0 1015.5 -0.1 63
2017-09-12 16:00:00 22 8 Noroeste 22 Noroeste 0 1015.4 -0.5 64
2017-09-12 15:00:00 21.1 3 Oeste 18 Noroeste 0 1015.6 0.3 68
2017-09-12 14:00:00 20.2 5 Oeste 21 Sudoeste 0 1015.6 0.5 71
2017-09-12 13:00:00 19 9 Sudoeste 18 Sur 0 1015.9 1.1 76
2017-09-12 12:00:00 18.7 6 Sur 13 Sudeste 0 1015.3 1.1 77
2017-09-12 11:00:00 17.6 4 Sur 15 Sur 0 1015.1 1.2 85
2017-09-12 10:00:00 15.9 6 Oeste 17 Oeste 0 1014.8 1.9 89
2017-09-12 09:00:00 15.2 8 Oeste 17 Sudoeste 0.6 1014.2 1.5 97
2017-09-12 08:00:00 15 0 Calma 15 Este 0.4 1013.9 0.9 97
2017-09-12 07:00:00 15.2 4 Sudeste 8 Sudeste 0 1012.9 -0.2 94
2017-09-12 06:00:00 15.4 0 Calma 8 Oeste 0 1012.7 -0.5 90
2017-09-12 05:00:00 15.5 4 Oeste 13 Oeste 0.5 1013 0.2 93
2017-09-12 04:00:00 15.4 7 Oeste 32 Noroeste 0.7 1013.1 0.1 96
2017-09-12 03:00:00 15.5 6 Oeste 26 Noroeste 1.1 1013.2 0 98
2017-09-12 02:00:00 15.5 0 Calma 8 Oeste 0 1012.8 -0.3 89
2017-09-12 01:00:00 15.7 4 Oeste 22 Noroeste 0 1013 0.7 91
2017-09-12 00:00:00 15.5 12 Oeste 28 Noroeste 0.5 1013.2 1.8 97
2017-09-11 23:00:00 15.5 26 Noroeste 45 Noroeste 0.8 1013.1 1.9 95
2017-09-11 22:00:00 17.4 18 Noroeste 30 Noroeste 0 1012.3 1.1 82
2017-09-11 21:00:00 18.7 8 Oeste 28 Noroeste 0 1011.4 0.4 72
2017-09-11 20:00:00 19 20 Noroeste 35 Oeste 0 1011.2 0.4 69
2017-09-11 19:00:00 19.4 20 Noroeste 42 Noroeste 0 1011.2 0.1 70
2017-09-11 18:00:00 20 21 Noroeste 46 Noroeste 0 1011 -0.2 69
2017-09-11 17:00:00 20.7 28 Noroeste 52 Noroeste 0 1010.8 -0.6 66
2017-09-11 16:00:00 19.5 27 Noroeste 45 Noroeste 0 1011.1 -0.2 77
2017-09-11 15:00:00 21.5 21 Noroeste 35 Noroeste 0 1011.2 0.5 68
2017-09-11 14:00:00 20.2 17 Oeste 28 Noroeste 0 1011.4 0.6 78
2017-09-11 13:00:00 17.6 14 Noroeste 32 Noroeste 0.6 1011.3 1.3 96
2017-09-11 12:00:00 19.1 9 Oeste 28 Oeste 0.1 1010.7 1.2 86
2017-09-11 11:00:00 17.2 12 Oeste 30 Oeste 0.7 1010.8 1.3 97
2017-09-11 10:00:00 17.6 16 Oeste 32 Noroeste 0 1010 1.3 92
2017-09-11 09:00:00 17.4 7 Oeste 21 Noroeste 0.1 1009.5 1.1 97
2017-09-11 08:00:00 17.1 13 Oeste 30 Noroeste 0.8 1009.5 1.1 99
2017-09-11 07:00:00 17.2 18 Noroeste 35 Noroeste 1.4 1008.7 0.5 99
2017-09-11 06:00:00 17.7 12 Noroeste 32 Norte 0.9 1008.4 -0.2 99
2017-09-11 05:00:00 17 2 Nordeste 15 Norte 1.2 1008.4 -0.4 99
2017-09-11 04:00:00 16.9 3 Este 8 Este 0.2 1008.2 -0.7 98
2017-09-11 03:00:00 16.9 3 Este 13 Este 0 1008.6 -0.7 95
2017-09-11 02:00:00 16.7 4 Sudeste 11 Sudeste 0 1008.8 -1.1 94
2017-09-11 01:00:00 16.6 6 Sudeste 9 Sudeste 0 1008.9 -1.2 92
2017-09-11 00:00:00 16.5 8 Este 15 Este 0 1009.3 -0.4 92
2017-09-10 23:00:00 16.9 3 Este 8 Este 0.2 1009.9 0 88
2017-09-10 22:00:00 18.2 0 Calma 8 Este 0 1010.1 -0.1 78
2017-09-10 21:00:00 18.6 2 Sudeste 4 Sudeste 0 1009.7 -0.7 73
2017-09-10 20:00:00 19.5 0 Calma 15 Noroeste 0 1009.9 -0.4 65
2017-09-10 19:00:00 19.6 10 Noroeste 24 Noroeste 0 1010.2 -0.8 65
2017-09-10 18:00:00 20.1 19 Noroeste 33 Noroeste 0 1010.4 -1.3 62
2017-09-10 17:00:00 21 24 Noroeste 37 Norte 0 1010.3 -1.4 59
2017-09-10 16:00:00 20.3 22 Noroeste 35 Noroeste 0 1011 -0.8 61
2017-09-10 15:00:00 20.2 26 Noroeste 41 Noroeste 0 1011.7 0.1 63
2017-09-10 14:00:00 19 17 Noroeste 35 Noroeste 0 1011.7 0.4 66
2017-09-10 13:00:00 19 23 Noroeste 48 Noroeste 0 1011.8 0.9 67
2017-09-10 12:00:00 19.2 21 Oeste 35 Oeste 0 1011.6 1.2 71
2017-09-10 11:00:00 17.1 10 Oeste 24 Noroeste 0 1011.3 1.3 92
2017-09-10 10:00:00 14.7 3 Sudeste 13 Oeste 3.6 1010.9 1.2 98
2017-09-10 09:00:00 14.6 7 Oeste 13 Oeste 1.1 1010.4 1 95
2017-09-10 08:00:00 14.5 3 Noroeste 13 Oeste 0.2 1010 1 93
2017-09-10 07:00:00 14.3 8 Oeste 32 Oeste 0.1 1009.7 0.5 96
2017-09-10 06:00:00 14.2 16 Oeste 39 Noroeste 2 1009.4 0.7 99
2017-09-10 05:00:00 13.9 5 Oeste 18 Norte 0.5 1009 0.4 99
2017-09-10 04:00:00 13.9 4 Nordeste 48 Norte 8.4 1009.2 0.5 100
2017-09-10 03:00:00 14.6 3 Oeste 15 Oeste 0.2 1008.7 0.4 91
2017-09-10 02:00:00 14.3 6 Sudoeste 15 Sudoeste 0.4 1008.6 0.5 93
2017-09-10 01:00:00 14 16 Noroeste 30 Noroeste 3.2 1008.7 1.1 92
2017-09-10 00:00:00 14.2 0 Calma 26 Oeste 0.1 1008.3 1.2 90
2017-09-09 23:00:00 14.2 14 Oeste 30 Oeste 1.4 1008.1 1.1 93
2017-09-09 22:00:00 14.3 5 Oeste 26 Noroeste 2 1007.6 0.3 95
2017-09-09 21:00:00 14.9 4 Oeste 21 Oeste 0.6 1007.1 0.8 90
2017-09-09 20:00:00 15 5 Oeste 35 Oeste 0.7 1007 0.5 90
2017-09-09 19:00:00 16.2 26 Noroeste 46 Noroeste 1.2 1007.3 0.8 82
2017-09-09 18:00:00 16.1 8 Oeste 42 Noroeste 2.2 1006.3 -0.5 94
2017-09-09 17:00:00 16.5 21 Oeste 46 Noroeste 0.6 1006.5 -0.1 83
2017-09-09 16:00:00 17.9 14 Oeste 46 Noroeste 0.2 1006.5 -0.1 76
2017-09-09 15:00:00 18.4 40 Noroeste 65 Noroeste 0 1006.8 0.2 68
2017-09-09 14:00:00 20 25 Noroeste 52 Noroeste 0 1006.6 0 62
2017-09-09 13:00:00 19.2 31 Noroeste 55 Noroeste 0 1006.6 0.1 69
2017-09-09 12:00:00 18.3 18 Noroeste 46 Noroeste 0 1006.6 0.4 78
2017-09-09 11:00:00 18.7 19 Noroeste 35 Oeste 0 1006.6 0.5 74
2017-09-09 10:00:00 16.4 3 Sudeste 11 Oeste 2 1006.5 0.9 95
2017-09-09 09:00:00 16.4 3 Este 11 Nordeste 0.7 1006.2 0.5 94
2017-09-09 08:00:00 16.1 4 Noroeste 15 Oeste 1.5 1006.1 0.6 96
2017-09-09 07:00:00 16.4 9 Oeste 18 Oeste 0.4 1005.6 0.6 91
2017-09-09 06:00:00 16.1 9 Oeste 45 Noroeste 3.6 1005.7 0.1 99
2017-09-09 05:00:00 17.6 24 Noroeste 45 Noroeste 0.5 1005.5 -0.1 92
2017-09-09 04:00:00 19.6 18 Oeste 45 Noroeste 0 1005 -1.5 77
2017-09-09 03:00:00 20.4 21 Noroeste 42 Noroeste 0 1005.6 -1.8 71
2017-09-09 02:00:00 19.7 6 Oeste 18 Oeste 0 1005.6 -2.3 73
2017-09-09 01:00:00 19.4 5 Oeste 15 Oeste 0 1006.5 -1.8 73
2017-09-09 00:00:00 19.2 3 Oeste 8 Oeste 0 1007.4 -0.6 74
2017-09-08 23:00:00 18.9 4 Oeste 22 Noroeste 0 1007.9 -0.2 77
2017-09-08 22:00:00 19.2 14 Noroeste 21 Norte 0 1008.3 0.1 77
2017-09-08 21:00:00 19.5 6 Norte 13 Norte 0 1008 -0.3 76
2017-09-08 20:00:00 19.6 8 Noroeste 21 Noroeste 0 1008.1 -1 75
2017-09-08 19:00:00 21.1 9 Norte 18 Norte 0 1008.2 -1.8 64
2017-09-08 18:00:00 22.3 9 Norte 18 Noroeste 0 1008.3 -1.4 61
2017-09-08 17:00:00 22.4 11 Noroeste 30 Norte 0 1009.1 -1.4 57
2017-09-08 16:00:00 22.7 21 Noroeste 32 Norte 0 1010 -1.5 55
2017-09-08 15:00:00 23.7 5 Norte 15 Norte 0 1009.7 -2.8 52
2017-09-08 14:00:00 23 3 Sur 15 Sur 0 1010.5 -2.9 52
2017-09-08 13:00:00 21.8 4 Sur 17 Sudoeste 0 1011.5 -2.2 53
2017-09-08 12:00:00 21 3 Sudeste 11 Sur 0 1012.5 -1.1 62
2017-09-08 11:00:00 18.5 5 Este 15 Sudeste 0 1013.4 -0.1 72
2017-09-08 10:00:00 15.7 7 Este 15 Este 0 1013.7 0.2 82
2017-09-08 09:00:00 13.4 6 Este 18 Este 0 1013.6 -0.2 93
2017-09-08 08:00:00 12.3 3 Este 8 Este 0 1013.5 -0.8 96
2017-09-08 07:00:00 12.9 0 Calma 5 Este 0 1013.5 -1.5 97
2017-09-08 06:00:00 13.4 0 Calma 5 Este 0 1013.8 -1.7 96
2017-09-08 05:00:00 14.2 0 Calma 8 Sudeste 0 1014.3 -1.8 94
2017-09-08 04:00:00 14.8 4 Este 8 Este 0 1015 -1.3 92
2017-09-08 03:00:00 15.5 4 Este 8 Sudeste 0 1015.5 -1.3 91
2017-09-08 02:00:00 16 2 Este 5 Sudeste 0 1016.1 -1.1 89
2017-09-08 01:00:00 16.4 4 Este 8 Este 0 1016.3 -0.8 87
2017-09-08 00:00:00 16.8 4 Este 13 Este 0 1016.8 -0.1 85
2017-09-07 23:00:00 17.1 0 Calma 9 Este 0 1017.2 0.4 83
2017-09-07 22:00:00 17.6 3 Sudeste 5 Sudeste 0 1017.1 0.4 78
2017-09-07 21:00:00 18.9 0 Calma 15 Nordeste 0 1016.9 0.1 69
2017-09-07 20:00:00 19.7 7 Norte 22 Nordeste 0 1016.8 -0.4 63
2017-09-07 19:00:00 20.5 10 Norte 18 Norte 0 1016.7 -0.8 65
2017-09-07 18:00:00 21.3 12 Norte 22 Nordeste 0 1016.8 -1.2 61
2017-09-07 17:00:00 22 12 Norte 21 Norte 0 1017.2 -1.4 57
2017-09-07 16:00:00 21.5 9 Norte 21 Norte 0 1017.5 -1.3 59
2017-09-07 15:00:00 21.4 10 Norte 18 Nordeste 0 1018 -1.1 59
2017-09-07 14:00:00 20.4 10 Norte 26 Norte 0 1018.6 -1.1 63
2017-09-07 13:00:00 20.5 6 Noroeste 17 Noroeste 0 1018.8 -0.6 63
2017-09-07 12:00:00 20.3 0 Calma 11 Noroeste 0 1019.1 -0.2 69
2017-09-07 11:00:00 18.5 0 Calma 8 Este 0 1019.7 0.6 81
2017-09-07 10:00:00 17 3 Este 8 Este 0 1019.4 0.4 89
2017-09-07 09:00:00 16.2 3 Este 11 Este 0 1019.3 0.3 96
2017-09-07 08:00:00 15.6 4 Este 8 Este 0 1019.1 -0.4 97
2017-09-07 07:00:00 15.4 4 Este 13 Este 0 1019 -0.9 98
2017-09-07 06:00:00 15.3 4 Este 8 Este 0 1019 -1.5 97
2017-09-07 05:00:00 15.6 3 Sudeste 8 Este 0 1019.5 -1.7 96
2017-09-07 04:00:00 15.6 4 Este 8 Este 0 1019.9 -1.8 97
2017-09-07 03:00:00 15.6 2 Este 8 Este 0 1020.5 -1.4 96
2017-09-07 02:00:00 15.8 3 Sudeste 5 Sudeste 0 1021.2 -0.8 95
2017-09-07 01:00:00 15.7 3 Este 8 Este 0 1021.7 -0.4 92
2017-09-07 00:00:00 16.7 3 Este 8 Sudeste 0 1021.9 0.4 89
2017-09-06 23:00:00 17.7 0 Calma 4 Sudoeste 0 1022 0.6 86
2017-09-06 22:00:00 18.4 0 Calma 8 Norte 0 1022.1 0.4 85
2017-09-06 21:00:00 19.4 3 Norte 15 Norte 0 1021.5 -0.3 74
2017-09-06 20:00:00 19.7 2 Noroeste 13 Norte 0 1021.4 -0.7 76
2017-09-06 19:00:00 19.9 11 Noroeste 18 Noroeste 0 1021.7 -0.7 74
2017-09-06 18:00:00 20.7 9 Norte 21 Noroeste 0 1021.8 -1 68
2017-09-06 17:00:00 21.1 12 Norte 22 Noroeste 0 1022.1 -1.1 68
2017-09-06 16:00:00 21.4 13 Noroeste 21 Noroeste 0 1022.4 -1.2 67
2017-09-06 15:00:00 21.2 9 Norte 17 Norte 0 1022.8 -0.8 76
2017-09-06 14:00:00 20.3 3 Noroeste 11 Norte 0 1023.2 -0.1 82
2017-09-06 13:00:00 19.6 2 Noroeste 17 Norte 0 1023.6 0.7 90
2017-09-06 12:00:00 18.9 8 Noroeste 17 Norte 0 1023.6 0.9 94
2017-09-06 11:00:00 18.5 5 Oeste 13 Noroeste 0 1023.3 0.9 99
2017-09-06 10:00:00 18.1 3 Oeste 9 Oeste 0.1 1022.9 1.1 99
2017-09-06 09:00:00 17.8 6 Oeste 17 Oeste 0.5 1022.7 1.1 100
2017-09-06 08:00:00 18.4 4 Oeste 22 Norte 0.1 1022.4 0.7 99
2017-09-06 07:00:00 18.3 2 Oeste 5 Oeste 0.9 1021.8 0.2 100
2017-09-06 06:00:00 18.4 0 Calma 5 Este 0.4 1021.6 -0.3 99
2017-09-06 05:00:00 18.2 0 Calma 5 Noroeste 0 1021.7 0 98
2017-09-06 04:00:00 18.1 3 Este 5 Este 0 1021.6 -0.3 97
2017-09-06 03:00:00 18 3 Este 5 Este 0 1021.9 -0.1 96
2017-09-06 02:00:00 18.5 3 Este 8 Este 0 1021.7 0 95
2017-09-06 01:00:00 19.5 3 Sudeste -- -- 0 1021.9 0.4 92
2017-09-06 00:00:00 20.3 0 Calma 5 Noroeste 0 1022 1.2 87
2017-09-05 23:00:00 20.8 2 Noroeste 8 Noroeste 0 1021.7 1.2 85
2017-09-05 22:00:00 20.9 3 Oeste 11 Noroeste 0 1021.5 1.4 85
2017-09-05 21:00:00 21.6 5 Norte 17 Norte 0 1020.8 1.2 84
2017-09-05 20:00:00 22.2 8 Noroeste 21 Noroeste 0 1020.5 1.2 77
2017-09-05 19:00:00 22.8 17 Noroeste 24 Noroeste 0 1020.1 0.8 74
2017-09-05 18:00:00 23.5 14 Noroeste 22 Noroeste 0 1019.6 0.7 72
2017-09-05 17:00:00 24.1 14 Norte 21 Norte 0 1019.3 1.1 66
2017-09-05 16:00:00 23.6 13 Noroeste 22 Noroeste 0 1019.3 1.2 69
2017-09-05 15:00:00 25 17 Noroeste 28 Noroeste 0 1018.9 1.3 64
2017-09-05 14:00:00 26.2 12 Noroeste 26 Noroeste 0 1018.2 1.1 61
2017-09-05 13:00:00 25.8 7 Noroeste 18 Norte 0 1018.1 1 61
2017-09-05 12:00:00 24.6 0 Calma 11 Este 0 1017.6 0.6 67
2017-09-05 11:00:00 23.3 6 Sudeste 15 Sudeste 0 1017.1 0.2 72
2017-09-05 10:00:00 20.4 9 Sudeste 18 Este 0 1017.1 -0.1 83
2017-09-05 09:00:00 17.9 10 Sudeste 21 Este 0 1017 -0.3 92
2017-09-05 08:00:00 16.4 5 Sudeste 21 Este 0 1016.9 0 98
2017-09-05 07:00:00 16.1 8 Este 17 Este 0 1017.2 0.2 99
2017-09-05 06:00:00 15.5 4 Este 8 Este 0 1017.3 0.4 99
2017-09-05 05:00:00 15.4 4 Este 8 Este 0 1016.9 0.5 98
2017-09-05 04:00:00 15.9 6 Este 8 Este 0 1017 0.7 98
2017-09-05 03:00:00 16 0 Calma 5 Este 0 1016.9 0.7 97
2017-09-05 02:00:00 16.3 3 Este 8 Este 0 1016.4 0 97
2017-09-05 01:00:00 16.8 4 Este 9 Este 0 1016.3 -0.1 96
2017-09-05 00:00:00 17.2 8 Este 13 Sudeste 0 1016.2 0.6 95
2017-09-04 23:00:00 18.1 4 Este 11 Sudeste 0 1016.4 1.2 91
2017-09-04 22:00:00 19 5 Sudeste 8 Este 0 1016.4 1.4 88
2017-09-04 21:00:00 21.3 3 Norte 8 Norte 0 1015.6 0.8 73
2017-09-04 20:00:00 21.9 3 Noroeste 15 Noroeste 0 1015.2 0.7 73
2017-09-04 19:00:00 22.6 8 Noroeste 28 Noroeste 0 1015 0.6 72
2017-09-04 18:00:00 23.7 14 Norte 30 Noroeste 0 1014.8 0.5 68
2017-09-04 17:00:00 24.1 18 Noroeste 33 Norte 0 1014.5 0.5 68
2017-09-04 16:00:00 23.7 20 Norte 30 Norte 0 1014.4 0.6 72
2017-09-04 15:00:00 23.7 18 Noroeste 32 Norte 0 1014.3 0.9 73
2017-09-04 14:00:00 24.1 17 Noroeste 28 Noroeste 0 1014 1.5 73
2017-09-04 13:00:00 22.5 15 Noroeste 24 Noroeste 0 1013.8 2 82
2017-09-04 12:00:00 20.1 5 Oeste 24 Noroeste 0.5 1013.4 2.2 95
2017-09-04 11:00:00 21 0 Calma 9 Este 0 1012.5 1.8 87
2017-09-04 10:00:00 19.6 5 Este 9 Este 0 1011.8 1.5 96
2017-09-04 09:00:00 18.8 4 Este 13 Este 0 1011.2 1.5 98
2017-09-04 08:00:00 18.4 6 Este 13 Este 0 1010.7 0.9 99
2017-09-04 07:00:00 18.3 0 Calma 5 Este 0 1010.3 0.7 99
2017-09-04 06:00:00 18.1 3 Sur 5 Sudeste 0 1009.7 0.5 99
2017-09-04 05:00:00 18 3 Sudeste 5 Sudeste 0 1009.8 0.7 99
2017-09-04 04:00:00 18.1 3 Nordeste 8 Sudeste 0 1009.6 0.4 99
2017-09-04 03:00:00 18 6 Sudeste 13 Este 1 1009.2 -0.1 99
2017-09-04 02:00:00 18 7 Nordeste 15 Sur 0 1009.1 -0.3 99
2017-09-04 01:00:00 18.2 4 Nordeste 8 Nordeste 0.5 1009.2 -0.1 98
2017-09-04 00:00:00 18.5 2 Este 11 Este 0 1009.3 0 96
2017-09-03 23:00:00 19.6 3 Sudoeste 11 Sudoeste 0.4 1009.4 0.5 92
2017-09-03 22:00:00 20.6 0 Calma 8 Sudoeste 0.1 1009.3 0.8 83
2017-09-03 21:00:00 22.3 4 Noroeste 18 Norte 0 1009.3 0.5 68
2017-09-03 20:00:00 24.1 4 Norte 15 Norte 0 1008.9 -0.5 62
2017-09-03 19:00:00 25.2 5 Nordeste 17 Este 0 1008.5 -1.3 56
2017-09-03 18:00:00 25.9 9 Nordeste 18 Nordeste 0 1008.8 -1.5 54
2017-09-03 17:00:00 26.2 8 Norte 15 Norte 0 1009.4 -1.3 52
2017-09-03 16:00:00 26.9 4 Oeste 22 Norte 0 1009.8 -1.4 48
2017-09-03 15:00:00 26.5 12 Norte 26 Norte 0 1010.3 -1.3 46
2017-09-03 14:00:00 26.1 10 Norte 21 Norte 0 1010.7 -1.6 45
2017-09-03 13:00:00 25.4 2 Sudoeste 13 Sudeste 0 1011.2 -1.3 47
2017-09-03 12:00:00 23 3 Este 11 Este 0 1011.6 -1 60
2017-09-03 11:00:00 19.7 5 Sudeste 13 Este 0 1012.3 -0.5 73
2017-09-03 10:00:00 16.8 4 Este 11 Este 0 1012.5 0.2 87
2017-09-03 09:00:00 15.5 4 Sudeste 11 Sudeste 0 1012.6 -0.1 90
2017-09-03 08:00:00 15.3 3 Este 11 Sudeste 0 1012.8 -0.8 89
2017-09-03 07:00:00 15.1 8 Este 17 Este 0 1012.3 -1.7 91
2017-09-03 06:00:00 14.8 6 Este 13 Este 0 1012.7 -2 92
2017-09-03 05:00:00 14.6 0 Calma 13 Sudeste 0 1013.6 -1.7 93
2017-09-03 04:00:00 14.7 4 Sudeste 15 Sudeste 0 1014 -2 92
2017-09-03 03:00:00 14.9 5 Sudeste 11 Este 0 1014.7 -1.9 92
2017-09-03 02:00:00 14.9 5 Sudeste 8 Sudeste 0 1015.3 -1.5 90
2017-09-03 01:00:00 15.7 3 Sudeste 8 Sudeste 0 1016 -1.1 89
2017-09-03 00:00:00 16.2 2 Este 11 Este 0 1016.6 -0.2 87
2017-09-02 23:00:00 17.2 3 Este 13 Este 0 1016.8 -0.1 81
2017-09-02 22:00:00 17.6 4 Sudeste 15 Sudeste 0 1017.1 -0.1 79
2017-09-02 21:00:00 18.5 10 Sudeste 18 Sudeste 0 1016.8 -0.8 74
2017-09-02 20:00:00 19.9 12 Este 21 Este 0 1016.9 -1.3 69
2017-09-02 19:00:00 21.6 13 Este 24 Este 0 1017.2 -1.7 61
2017-09-02 18:00:00 22.6 18 Este 28 Este 0 1017.6 -2.2 56
2017-09-02 17:00:00 22.7 18 Este 28 Nordeste 0 1018.2 -2.3 58
2017-09-02 16:00:00 23.4 8 Este 21 Este 0 1018.9 -2.4 51
2017-09-02 15:00:00 22.4 7 Este 21 Nordeste 0 1019.8 -1.7 53
2017-09-02 14:00:00 22.5 7 Nordeste 18 Norte 0 1020.5 -1.2 51
2017-09-02 13:00:00 21.1 9 Norte 24 Nordeste 0 1021.3 -0.4 56
2017-09-02 12:00:00 20 7 Noroeste 18 Oeste 0 1021.5 0 61
2017-09-02 11:00:00 19.1 3 Oeste 11 Sudoeste 0 1021.7 0.2 73
2017-09-02 10:00:00 16.4 4 Sudeste 15 Este 0 1021.7 0.7 97
2017-09-02 09:00:00 13.5 4 Este 11 Este 0 1021.5 0.4 100
2017-09-02 08:00:00 13.1 6 Este 13 Este 0.1 1021.5 0.4 100
2017-09-02 07:00:00 13.7 5 Este 8 Este 0 1021 -0.2 100
2017-09-02 06:00:00 13.9 4 Este 5 Este 0 1021.1 -0.2 100
2017-09-02 05:00:00 14 5 Este 11 Este 1.8 1021.1 -0.4 100
2017-09-02 04:00:00 14.1 4 Sudeste 8 Sudeste 0 1021.2 -0.4 100
2017-09-02 03:00:00 14.2 6 Este 11 Este 0 1021.3 -0.2 99
2017-09-02 02:00:00 14.6 6 Este 13 Sur 0 1021.5 0.2 99
2017-09-02 01:00:00 14.9 6 Este 11 Este 0 1021.6 1 99
2017-09-02 00:00:00 15.3 4 Sudeste 13 Este 0.1 1021.5 1.4 96
2017-09-01 23:00:00 15.8 7 Este 18 Este 1.3 1021.3 1.6 93
2017-09-01 22:00:00 16.9 2 Sudoeste 8 Noroeste 0.1 1020.6 1.2 83
2017-09-01 21:00:00 17.5 2 Oeste 32 Noroeste 0 1020.1 0.5 79
2017-09-01 20:00:00 19 19 Noroeste 32 Noroeste 0 1019.7 0.7 72
2017-09-01 19:00:00 18.4 4 Oeste 33 Norte 0 1019.4 0.1 79
2017-09-01 18:00:00 17.6 21 Norte 41 Noroeste 0 1019.6 0.2 78
2017-09-01 17:00:00 20.6 24 Noroeste 37 Noroeste 0 1019 0.1 62
2017-09-01 16:00:00 20.4 19 Oeste 41 Noroeste 0 1019.3 0.2 62
2017-09-01 15:00:00 20.1 21 Noroeste 37 Noroeste 0 1019.4 0.2 62
2017-09-01 14:00:00 22.2 26 Noroeste 35 Noroeste 0 1018.9 -0.4 55
2017-09-01 13:00:00 21.9 22 Noroeste 35 Noroeste 0 1019.1 0.1 56
2017-09-01 12:00:00 21.1 16 Noroeste 28 Noroeste 0 1019.2 0.4 60
2017-09-01 11:00:00 19.7 14 Noroeste 22 Oeste 0 1019.3 0.7 65
2017-09-01 10:00:00 17.8 2 Este 9 Este 0 1019 0.8 84
2017-09-01 09:00:00 15.8 4 Sudeste 13 Este 0 1018.8 0.6 95
2017-09-01 08:00:00 14.6 5 Sudeste 11 Sudeste 0 1018.6 0.1 97
2017-09-01 07:00:00 14.8 0 Calma 13 Este 0 1018.2 -0.4 96
2017-09-01 06:00:00 15 5 Este 8 Sudeste 0 1018.2 -0.6 96
2017-09-01 05:00:00 15.3 2 Sudeste 8 Sudeste 0 1018.5 -0.3 95
2017-09-01 04:00:00 15.4 5 Este 11 Este 0 1018.6 -0.4 96
2017-09-01 03:00:00 15.6 4 Sudeste 8 Sudeste 0 1018.8 -0.2 92
2017-09-01 02:00:00 15.4 3 Este 11 Sudeste 0 1018.8 -0.1 92
2017-09-01 01:00:00 15.5 8 Este 11 Este 0 1019 0.3 93
2017-09-01 00:00:00 15.6 4 Sudeste 13 Este 0 1019 0.8 91
2017-08-31 23:00:00 16.3 6 Este 11 Este 0 1018.9 0.9 86
2017-08-31 22:00:00 17.2 5 Este 8 Este 0 1018.7 1.2 84
2017-08-31 21:00:00 18.6 5 Norte 13 Noroeste 0 1018.2 0.8 72
2017-08-31 20:00:00 20.3 8 Norte 18 Noroeste 0 1018 0.8 63
2017-08-31 19:00:00 20.9 11 Norte 24 Nordeste 0 1017.5 0 61
2017-08-31 18:00:00 21.9 14 Norte 28 Norte 0 1017.4 -0.5 61
2017-08-31 17:00:00 21.6 14 Norte 24 Norte 0 1017.2 -1.3 64
2017-08-31 16:00:00 22 11 Norte 24 Norte 0 1017.5 -1.3 64
2017-08-31 15:00:00 20.2 3 Noroeste 13 Norte 0 1017.9 -0.7 72
2017-08-31 14:00:00 18.9 5 Oeste 13 Oeste 0 1018.5 0 79
2017-08-31 13:00:00 17.5 7 Oeste 18 Noroeste 0 1018.8 0.6 93
2017-08-31 12:00:00 17.8 13 Noroeste 22 Noroeste 0 1018.6 0.8 87
2017-08-31 11:00:00 18.3 0 Calma 11 Nordeste 0 1018.5 1.1 86
2017-08-31 10:00:00 17.6 3 Este 8 Este 0 1018.2 1.2 90
2017-08-31 09:00:00 16.1 4 Este 8 Este 0 1017.8 1 99
2017-08-31 08:00:00 15.7 0 Calma 4 Sur 0 1017.4 0.8 99
2017-08-31 07:00:00 15.5 3 Este 11 Sudoeste 0.7 1017 0.4 99
2017-08-31 06:00:00 15.7 7 Nordeste 13 Nordeste 0 1016.8 0.3 99
2017-08-31 05:00:00 15.7 0 Calma 5 Sur 0.3 1016.6 0.4 98
2017-08-31 04:00:00 15.7 4 Oeste 11 Sudoeste 0.5 1016.6 0.6 98
2017-08-31 03:00:00 16.2 2 Sudoeste 13 Este 0 1016.5 0.6 97
2017-08-31 02:00:00 16.2 0 Calma 4 Sudeste 0 1016.2 0.4 96
2017-08-31 01:00:00 16.3 3 Oeste 15 Noroeste 0 1016 0.8 96
2017-08-31 00:00:00 16.2 8 Oeste 15 Oeste 0.8 1015.9 2.3 97
2017-08-30 23:00:00 16.2 0 Calma 18 Noroeste 0.4 1015.8 3.1 94
2017-08-30 22:00:00 16.6 12 Noroeste 28 Noroeste 1 1015.2 3.8 94
2017-08-30 21:00:00 17.5 18 Noroeste 32 Noroeste 0.5 1013.6 2.7 96
2017-08-30 20:00:00 18.3 10 Noroeste 21 Noroeste 0.9 1012.7 2.6 98
2017-08-30 19:00:00 18.7 7 Norte 33 Noroeste 0.2 1011.4 2.1 97
2017-08-30 18:00:00 19.5 19 Norte 39 Nordeste 3.3 1010.9 1.7 99
2017-08-30 17:00:00 20.2 7 Oeste 39 Norte 10.1 1010.1 1.1 100
2017-08-30 16:00:00 22.7 17 Norte 33 Norte 0 1009.3 0.3 80
2017-08-30 15:00:00 24 18 Noroeste 32 Noroeste 0 1009.2 0 76
2017-08-30 14:00:00 26.3 17 Oeste 26 Oeste 0 1009 -0.7 67
2017-08-30 13:00:00 25.9 11 Noroeste 24 Oeste 0 1009 -0.9 64
2017-08-30 12:00:00 26 7 Sur 15 Este 0 1009.2 -0.4 64
2017-08-30 11:00:00 23.6 0 Calma 11 Sudeste 0 1009.7 0.4 76
2017-08-30 10:00:00 21.3 3 Sudeste 5 Sudeste 0 1009.9 0.3 85
2017-08-30 09:00:00 20.9 0 Calma 11 Este 0 1009.6 0.2 88
2017-08-30 08:00:00 19.7 6 Este 13 Este 0 1009.3 -0.3 92
2017-08-30 07:00:00 19.9 2 Sur 13 Sudeste 0 1009.6 -0.5 93
2017-08-30 06:00:00 19.9 5 Sudeste 8 Sudeste 0 1009.4 -0.6 93
2017-08-30 05:00:00 20.3 2 Sudeste 5 Sur 0 1009.6 -0.7 92
2017-08-30 04:00:00 20.4 0 Calma 4 Sudeste 0 1010.1 -0.2 91
2017-08-30 03:00:00 20.6 0 Calma 5 Este 0 1010 -0.5 90
2017-08-30 02:00:00 20.3 3 Sudeste 11 Sudeste 0 1010.3 0.6 91
2017-08-30 01:00:00 20.1 0 Calma 4 Sudeste 0 1010.3 -0.1 90
2017-08-30 00:00:00 20.1 0 Calma 5 Sur 0 1010.5 0.3 88
2017-08-29 23:00:00 21 4 Norte 17 Noroeste 0 1009.7 0.1 88
2017-08-29 22:00:00 21.2 2 Sudoeste 17 Oeste 0 1010.4 1.2 88
2017-08-29 21:00:00 21.5 6 Oeste 18 Oeste 0 1010.2 1.9 86
2017-08-29 20:00:00 22.4 14 Noroeste 24 Noroeste 0 1009.6 1.2 80
2017-08-29 19:00:00 23.8 15 Oeste 26 Noroeste 0 1009.2 0.9 68
2017-08-29 18:00:00 25.3 19 Oeste 30 Noroeste 0 1008.3 -0.5 65
2017-08-29 17:00:00 25.9 21 Oeste 33 Oeste 0 1008.4 -1 65
2017-08-29 16:00:00 29 14 Oeste 28 Noroeste 0 1008.3 -1.5 55
2017-08-29 15:00:00 29 5 Este 13 Nordeste 0 1008.8 -1.8 50
2017-08-29 14:00:00 27.2 3 Sudoeste 13 Oeste 0 1009.4 -0.8 58
2017-08-29 13:00:00 25.2 3 Sudoeste 13 Este 0 1009.8 -0.3 65
2017-08-29 12:00:00 23.5 3 Sur 18 Nordeste 0 1010.6 0.6 72
2017-08-29 11:00:00 21.7 2 Sudeste 11 Sudeste 0 1010.2 0.1 82
2017-08-29 10:00:00 20.3 5 Este 15 Sudeste 0 1010.1 0.8 87
2017-08-29 09:00:00 18.2 3 Este 13 Este 0 1010 0.6 99
2017-08-29 08:00:00 16.9 5 Sudeste 15 Este 0.1 1010.1 0.9 100
2017-08-29 07:00:00 17.1 3 Este 11 Noroeste 0 1009.3 -0.3 99
2017-08-29 06:00:00 18.1 0 Calma 8 Sudeste 0 1009.4 -1.2 98
2017-08-29 05:00:00 18.2 6 Sudeste 11 Sudeste 0 1009.2 -1.4 98
2017-08-29 04:00:00 18.4 0 Calma 11 Sur 0.1 1009.6 -1.1 98
2017-08-29 03:00:00 18.6 6 Sudoeste 17 Sur 2.1 1010.6 0.3 97
2017-08-29 02:00:00 18.9 8 Este 22 Este 5.5 1010.6 0.5 94
2017-08-29 01:00:00 20.5 3 Este 8 Sudeste 1.1 1010.7 0.5 83
2017-08-29 00:00:00 21.4 9 Nordeste 13 Nordeste 0 1010.3 0.4 80
2017-08-28 23:00:00 21.2 0 Calma 15 Este 0 1010.1 -0.2 81
2017-08-28 22:00:00 21.3 4 Sudeste 21 Este 0 1010.2 0 81
2017-08-28 21:00:00 22.1 8 Sudeste 18 Sudeste 0 1009.9 -0.3 74
2017-08-28 20:00:00 21.9 4 Sudeste 18 Sudeste 0 1010.3 1.7 80
2017-08-28 19:00:00 22.3 13 Sudoeste 32 Sudoeste 0.3 1010.2 0.9 77
2017-08-28 18:00:00 22.9 14 Sudoeste 39 Sudoeste 0.5 1010.2 -0.2 70
2017-08-28 17:00:00 27.5 6 Sudeste 26 Sudeste 0 1008.6 -1.1 51
2017-08-28 16:00:00 26.9 9 Este 32 Sudoeste 0 1009.3 -0.8 57
2017-08-28 15:00:00 27.3 0 Calma 15 Sudeste 0 1010.4 0.7 60
2017-08-28 14:00:00 27.5 6 Sudoeste 24 Sudeste 0 1009.7 -2.1 55
2017-08-28 13:00:00 25 19 Este 37 Este 0 1010.1 -0.4 66
2017-08-28 12:00:00 24.8 8 Este 18 Nordeste 0 1009.7 -0.1 66
2017-08-28 11:00:00 23.1 4 Sur 22 Sur 0 1011.8 2.4 71
2017-08-28 10:00:00 22 4 Este 11 Este 0 1010.5 0.6 80
2017-08-28 09:00:00 21.4 4 Este 15 Sudeste 0 1009.8 0.1 79
2017-08-28 08:00:00 20.1 5 Sudeste 33 Este 0 1009.4 -0.4 86
2017-08-28 07:00:00 19.3 13 Nordeste 37 Nordeste 0 1009.9 -0.1 91
2017-08-28 06:00:00 18.1 4 Sudeste 8 Sudeste 0 1009.7 -0.3 96
2017-08-28 05:00:00 18.2 4 Sudeste 13 Este 0 1009.8 0 93
2017-08-28 04:00:00 19 7 Este 8 Este 0 1010 1.1 90
2017-08-28 03:00:00 20.2 4 Sur 13 Norte 0 1010 1.5 84
2017-08-28 02:00:00 21.7 3 Sur 11 Este 0 1009.8 0.4 78
2017-08-28 01:00:00 24 8 Sudeste 22 Sudeste 0 1008.9 0 66
2017-08-28 00:00:00 24.2 12 Sudeste 26 Este 0 1008.5 -0.3 66
2017-08-27 23:00:00 24.2 12 Sudeste 24 Este 0 1009.4 0.6 66
2017-08-27 22:00:00 24.1 4 Sudeste 24 Este 0 1008.9 -0.3 67
2017-08-27 21:00:00 23.5 11 Este 28 Este 0 1008.8 -1.3 71
2017-08-27 20:00:00 23.6 17 Este 35 Este 0 1008.8 -3.1 71
2017-08-27 19:00:00 22.7 14 Sudeste 28 Sudeste 0 1009.2 -4.1 77
2017-08-27 18:00:00 22.1 17 Sudeste 39 Este 0 1010.1 -2.3 81
2017-08-27 17:00:00 20.8 14 Sudeste 37 Sudeste 2.3 1011.9 0.7 84
2017-08-27 16:00:00 23.2 6 Oeste 37 Sudoeste 0.7 1013.3 2.3 71
2017-08-27 15:00:00 25.5 14 Oeste 24 Sudoeste 0 1012.4 1.3 59
2017-08-27 14:00:00 27.6 10 Sudeste 18 Sudeste 0 1011.2 0.6 59
2017-08-27 13:00:00 26.5 3 Oeste 15 Este 0 1011 1 66
2017-08-27 12:00:00 23.5 4 Este 15 Sudeste 0 1011.1 2.3 80
2017-08-27 11:00:00 22.5 4 Este 13 Oeste 0 1010.6 2.2 81
2017-08-27 10:00:00 21.8 8 Oeste 22 Oeste 0 1010 1.7 82
2017-08-27 09:00:00 20.5 14 Este 17 Este 0 1008.8 0.1 93
2017-08-27 08:00:00 19.1 0 Calma 21 Este 0 1008.4 -0.5 98
2017-08-27 07:00:00 19.2 11 Este 17 Este 0 1008.3 -1 99
2017-08-27 06:00:00 19.1 4 Este 9 Este 0 1008.7 -1.2 100
2017-08-27 05:00:00 19.3 0 Calma 13 Sudeste 0 1008.9 -1.1 99
2017-08-27 04:00:00 19 6 Sudeste 9 Sudeste 0 1009.3 -0.5 98
2017-08-27 03:00:00 18.9 0 Calma 5 Oeste 0 1009.9 -0.2 97
2017-08-27 02:00:00 19.3 3 Sudoeste 5 Este 0 1010 0 96
2017-08-27 01:00:00 19.9 2 Nordeste 5 Sudeste 0 1009.8 0 95
2017-08-27 00:00:00 20.4 0 Calma 11 Este 0 1010.1 0.6 92
2017-08-26 23:00:00 20.9 0 Calma 5 Norte 0 1010 0.7 89
2017-08-26 22:00:00 21.1 0 Calma 5 Sudoeste 0 1009.8 0 89
2017-08-26 21:00:00 22.1 0 Calma 4 Oeste 0 1009.5 -0.5 83
2017-08-26 20:00:00 23.1 3 Noroeste 13 Noroeste 0 1009.3 -0.8 80
2017-08-26 19:00:00 23.6 8 Oeste 22 Noroeste 0 1009.8 0.5 77
2017-08-26 18:00:00 24.8 17 Oeste 28 Noroeste 0 1010 1.1 73
2017-08-26 17:00:00 23.9 20 Oeste 30 Oeste 0 1010.1 1.6 75
2017-08-26 16:00:00 25.3 18 Noroeste 28 Oeste 0 1009.3 0.5 71
2017-08-26 15:00:00 26.6 19 Oeste 30 Oeste 0 1008.9 -0.3 65
2017-08-26 14:00:00 30.8 2 Este 13 Este 0 1008.5 -1 52
2017-08-26 13:00:00 29.1 6 Este 15 Este 0 1008.8 -0.6 57
2017-08-26 12:00:00 27.2 4 Sudeste 18 Sudeste 0 1009.2 -0.3 62
2017-08-26 11:00:00 24.9 11 Este 21 Sudeste 0 1009.5 -0.1 70
2017-08-26 10:00:00 23.4 11 Sudeste 24 Sudeste 0 1009.4 -0.4 77
2017-08-26 09:00:00 21.1 14 Sudeste 21 Sudeste 0 1009.5 -0.5 89
2017-08-26 08:00:00 20.3 11 Este 17 Este 0 1009.6 -0.8 92
2017-08-26 07:00:00 20.1 2 Sudeste 4 Sudeste 0 1009.8 -1.2 92
2017-08-26 06:00:00 20.1 0 Calma 4 Este 0 1010 -1.3 92
2017-08-26 05:00:00 20.1 2 Este 4 Este 0 1010.4 -1.3 92
2017-08-26 04:00:00 20.2 2 Sudeste 13 Este 0 1011 -1.1 90
2017-08-26 03:00:00 20.6 7 Este 11 Nordeste 0 1011.3 -1.2 87
2017-08-26 02:00:00 20.8 3 Este 8 Este 0 1011.7 -0.8 86
2017-08-26 01:00:00 20.9 0 Calma 5 Este 0 1012.1 0 84
2017-08-26 00:00:00 20.9 3 Noroeste 8 Norte 0 1012.5 1 84
2017-08-25 23:00:00 21 2 Noroeste 11 Norte 0 1012.5 1.3 84
2017-08-25 22:00:00 21.5 3 Norte 17 Norte 0 1012.1 1 82
2017-08-25 21:00:00 22.1 6 Norte 13 Noroeste 0 1011.5 0.6 80
2017-08-25 20:00:00 22.5 3 Norte 15 Norte 0 1011.2 0.3 79
2017-08-25 19:00:00 22.8 7 Norte 18 Norte 0 1011.1 0.3 77
2017-08-25 18:00:00 23.2 11 Norte 18 Norte 0 1010.9 0 76
2017-08-25 17:00:00 23.7 14 Norte 24 Norte 0 1010.9 0 73
2017-08-25 16:00:00 24.4 12 Norte 22 Noroeste 0 1010.8 -0.2 72
2017-08-25 15:00:00 25.2 15 Norte 24 Norte 0 1010.9 -0.4 70
2017-08-25 14:00:00 25.6 10 Norte 30 Oeste 0 1010.9 -0.7 69
2017-08-25 13:00:00 27.3 8 Noroeste 22 Noroeste 0 1011 -0.7 61
2017-08-25 12:00:00 26.2 3 Sudoeste 11 Sur 0 1011.3 -0.3 63
2017-08-25 11:00:00 24.4 3 Sur 9 Sur 0 1011.6 0.1 72
2017-08-25 10:00:00 22.7 3 Este 13 Este 0 1011.7 0.2 81
2017-08-25 09:00:00 19.6 2 Sudeste 11 Sudeste 0 1011.6 -0.1 95
2017-08-25 08:00:00 18.1 6 Sudeste 11 Sudeste 0 1011.5 -0.6 97
2017-08-25 07:00:00 18.8 3 Este 8 Este 0 1011.5 -0.9 95
2017-08-25 06:00:00 19.6 3 Este 4 Este 0 1011.7 -1.1 92
2017-08-25 05:00:00 20.1 0 Calma 2 Sur 0 1012.1 -1.1 91
2017-08-25 04:00:00 20.2 0 Calma 4 Sur 0 1012.4 -1.2 90
2017-08-25 03:00:00 20.3 0 Calma 2 Oeste 0 1012.8 -1 90
2017-08-25 02:00:00 20.3 0 Calma 9 Oeste 0 1013.2 -0.5 90
2017-08-25 01:00:00 20.3 5 Sudoeste 11 Sudoeste 0 1013.6 0.2 93
2017-08-25 00:00:00 20.7 5 Oeste 11 Oeste 0 1013.8 1.1 93
2017-08-24 23:00:00 20.7 3 Noroeste 13 Oeste 0 1013.7 1.4 95
2017-08-24 22:00:00 21 8 Oeste 15 Oeste 0 1013.4 1.3 94
2017-08-24 21:00:00 21.5 10 Noroeste 17 Oeste 0 1012.7 1 87
2017-08-24 20:00:00 22 12 Noroeste 18 Norte 0 1012.3 1.1 82
2017-08-24 19:00:00 22.5 14 Noroeste 24 Noroeste 0 1012.1 1.1 81
2017-08-24 18:00:00 23.6 16 Norte 22 Norte 0 1011.7 0.7 77
2017-08-24 17:00:00 24.7 12 Noroeste 22 Norte 0 1011.2 0.3 70
2017-08-24 16:00:00 25 12 Norte 24 Noroeste 0 1011 -0.5 71
2017-08-24 15:00:00 25.8 11 Norte 28 Norte 0 1011 -1 69
2017-08-24 14:00:00 27.8 3 Este 15 Nordeste 0 1010.9 -1.4 57
2017-08-24 13:00:00 25.9 6 Este 13 Nordeste 0 1011.5 -0.9 65
2017-08-24 12:00:00 24.5 4 Nordeste 15 Este 0 1012 -0.3 73
2017-08-24 11:00:00 22.5 2 Sudeste 9 Sudeste 0 1012.3 0.2 82
2017-08-24 10:00:00 20.6 0 Calma 5 Oeste 0 1012.4 0.4 94
2017-08-24 09:00:00 19.9 0 Calma 8 Oeste 0 1012.3 0.3 98
2017-08-24 08:00:00 19.4 3 Noroeste 5 Noroeste 0 1012.1 -0.4 99
2017-08-24 07:00:00 19.4 2 Oeste 8 Oeste 0 1012 -0.6 100
2017-08-24 06:00:00 19.4 2 Sudoeste 5 Sudoeste 0 1012 -0.8 99
2017-08-24 05:00:00 19.6 2 Noroeste 4 Noroeste 0.1 1012.5 -0.6 98
2017-08-24 04:00:00 19.7 0 Calma 2 Sudeste 0 1012.6 -1 97
2017-08-24 03:00:00 20 0 Calma 8 Este 0 1012.8 -1 94
2017-08-24 02:00:00 20.1 5 Este 8 Este 0 1013.1 -0.1 92
2017-08-24 01:00:00 21.1 4 Nordeste 8 Norte 0 1013.6 1.3 83
2017-08-24 00:00:00 21.3 4 Norte 13 Norte 0 1013.8 0.8 81
2017-08-23 23:00:00 21.3 8 Este 17 Este 0 1013.2 0.2 81
2017-08-23 22:00:00 21.6 12 Este 17 Este 0 1012.3 -0.4 79
2017-08-23 21:00:00 21.9 5 Nordeste 17 Nordeste 0 1013 0.5 76
2017-08-23 20:00:00 22.3 10 Nordeste 21 Nordeste 0 1013 0.1 75
2017-08-23 19:00:00 23.1 13 Nordeste 26 Norte 0 1012.7 -0.5 73
2017-08-23 18:00:00 24.2 13 Norte 21 Nordeste 0 1012.5 -1 70
2017-08-23 17:00:00 24.8 6 Norte 24 Nordeste 0 1012.9 -0.6 68
2017-08-23 16:00:00 24.3 11 Nordeste 21 Nordeste 0 1013.2 -0.7 71
2017-08-23 15:00:00 23.8 10 Norte 21 Norte 0 1013.5 -0.6 73
2017-08-23 14:00:00 25.8 10 Norte 22 Norte 0 1013.5 -0.8 64
2017-08-23 13:00:00 25.3 6 Norte 18 Norte 0 1013.9 -0.5 62
2017-08-23 12:00:00 25 5 Este 15 Este 0 1014.1 -0.3 61
2017-08-23 11:00:00 22.1 2 Sudoeste 8 Sur 0 1014.3 -0.2 73
2017-08-23 10:00:00 20.9 0 Calma 8 Sudeste 0 1014.4 -0.2 80
2017-08-23 09:00:00 19.4 7 Sudeste 11 Sudeste 0 1014.4 -0.1 89
2017-08-23 08:00:00 18.8 0 Calma 5 Este 0 1014.5 -0.2 92
2017-08-23 07:00:00 18.3 3 Este 8 Este 0 1014.6 -0.3 94
2017-08-23 06:00:00 18.2 4 Sudeste 5 Sudeste 0 1014.5 -0.5 93
2017-08-23 05:00:00 18.3 0 Calma 8 Este 0 1014.7 -0.1 92
2017-08-23 04:00:00 18.4 2 Este 8 Este 0 1014.9 -0.2 92
2017-08-23 03:00:00 18.5 6 Este 11 Este 0 1015 -0.2 93
2017-08-23 02:00:00 18.7 4 Sudeste 8 Sudeste 0 1014.8 -0.2 91
2017-08-23 01:00:00 19.8 2 Norte 13 Noroeste 0 1015.1 0.6 87
2017-08-23 00:00:00 20.1 9 Noroeste 22 Noroeste 0 1015.2 1.5 86
2017-08-22 23:00:00 21 12 Noroeste 24 Noroeste 0 1015 1.9 83
2017-08-22 22:00:00 21.3 11 Noroeste 18 Norte 0 1014.5 1.5 82
2017-08-22 21:00:00 21.6 10 Norte 22 Noroeste 0 1013.7 0.6 83
2017-08-22 20:00:00 22.8 16 Noroeste 22 Norte 0 1013.1 0.2 78
2017-08-22 19:00:00 23.9 15 Noroeste 32 Norte 0 1013 0.3 74
2017-08-22 18:00:00 24 25 Noroeste 33 Norte 0 1013.1 0.5 73
2017-08-22 17:00:00 25 21 Noroeste 33 Noroeste 0 1012.9 0.3 71
2017-08-22 16:00:00 25.4 21 Noroeste 33 Noroeste 0 1012.7 0.3 71
2017-08-22 15:00:00 25.7 20 Noroeste 28 Noroeste 0 1012.6 0.3 70
2017-08-22 14:00:00 26.2 15 Noroeste 28 Noroeste 0 1012.6 0.9 69
2017-08-22 13:00:00 26.9 19 Noroeste 35 Norte 0 1012.4 1.9 59
2017-08-22 12:00:00 27.5 19 Noroeste 30 Noroeste 0 1012.3 2.4 54
2017-08-22 11:00:00 27 19 Noroeste 28 Noroeste 0 1011.7 1.9 56
2017-08-22 10:00:00 25.3 0 Calma 15 Este 0 1010.5 1.2 63
2017-08-22 09:00:00 21.5 11 Este 17 Este 0 1009.9 0.8 74
2017-08-22 08:00:00 19.2 2 Este 8 Este 0 1009.8 0.8 83
2017-08-22 07:00:00 19.4 0 Calma 11 Este 0 1009.3 1.1 82
2017-08-22 06:00:00 20.4 6 Este 8 Este 0 1009.1 1.8 79
2017-08-22 05:00:00 22.3 4 Noroeste 24 Oeste 0 1009 1.4 75
2017-08-22 04:00:00 23.5 13 Oeste 22 Oeste 0 1008.2 0.2 55
2017-08-22 03:00:00 22.2 14 Sudeste 21 Sudeste 0 1007.3 -1 63
2017-08-22 02:00:00 22.3 19 Sudeste 22 Sudeste 0 1007.6 -0.8 69
2017-08-22 01:00:00 22.1 3 Este 8 Este 0 1008 -0.2 77
2017-08-22 00:00:00 22.2 3 Norte 11 Norte 0 1008.3 -- 77